Time;durP1;ratioP1;P1;durP2;ratioP2;P2;SDS_P1;SDS_P2;PMS_P1;PMS_P2;Temp;Humidity;BMP_temperature;BMP_pressure;BME280_temperature;BME280_humidity;BME280_pressure;Samples;Min_cycle;Max_cycle;Signal;HPM_P1;HPM_P2
2022/09/10 00:01:10;;;;;;;21.93;20.93;;;16.70;87.00;;;;;;5007333;28;20989;-73
2022/09/10 00:03:39;;;;;;;21.23;20.23;;;16.70;87.20;;;;;;4999287;28;20475;-74
2022/09/10 00:06:08;;;;;;;22.93;21.53;;;16.60;87.40;;;;;;5007310;28;20461;-73
2022/09/10 00:08:35;;;;;;;23.10;22.00;;;16.70;87.20;;;;;;5010576;28;20534;-73
2022/09/10 00:11:05;;;;;;;23.10;22.03;;;16.60;87.40;;;;;;4999531;28;21222;-73
2022/09/10 00:13:33;;;;;;;21.80;20.90;;;16.60;87.60;;;;;;5001987;28;20478;-73
2022/09/10 00:16:03;;;;;;;22.57;21.27;;;16.50;87.80;;;;;;5005743;28;20466;-73
2022/09/10 00:18:30;;;;;;;22.47;21.27;;;16.50;87.70;;;;;;5011653;28;20456;-73
2022/09/10 00:21:01;;;;;;;23.20;22.00;;;16.60;88.00;;;;;;5011042;28;20461;-73
2022/09/10 00:23:29;;;;;;;21.97;20.70;;;16.60;87.90;;;;;;5005563;28;20481;-73
2022/09/10 00:25:57;;;;;;;21.70;20.80;;;16.70;87.20;;;;;;5003495;28;20468;-73
2022/09/10 00:28:27;;;;;;;22.33;21.20;;;16.60;86.70;;;;;;5001581;28;20473;-73
2022/09/10 00:30:54;;;;;;;23.20;22.20;;;16.60;86.70;;;;;;4994957;28;20479;-73
2022/09/10 00:33:23;;;;;;;22.07;21.07;;;16.60;86.20;;;;;;4996184;28;20489;-73
2022/09/10 00:35:50;;;;;;;22.80;21.77;;;16.60;85.30;;;;;;5005031;28;20484;-74
2022/09/10 00:38:19;;;;;;;21.97;21.07;;;16.60;85.40;;;;;;5004577;28;20492;-73
2022/09/10 00:40:46;;;;;;;23.93;22.83;;;16.50;85.00;;;;;;5004832;28;20457;-73
2022/09/10 00:43:17;;;;;;;23.60;22.70;;;16.50;85.30;;;;;;5008073;28;20469;-73
2022/09/10 00:45:47;;;;;;;24.10;23.10;;;16.50;85.40;;;;;;5003767;28;20479;-73
2022/09/10 00:48:17;;;;;;;24.40;23.20;;;16.50;85.50;;;;;;5001991;28;20456;-73
2022/09/10 00:50:46;;;;;;;23.87;22.77;;;16.50;85.20;;;;;;5009292;28;20543;-73
2022/09/10 00:53:17;;;;;;;22.00;21.10;;;16.50;85.40;;;;;;4999760;28;21227;-73
2022/09/10 00:55:49;;;;;;;23.30;22.00;;;16.50;85.40;;;;;;4993183;28;20458;-73
2022/09/10 00:58:18;;;;;;;22.70;21.70;;;16.40;85.50;;;;;;4999094;28;20518;-73
2022/09/10 01:00:45;;;;;;;23.70;22.60;;;16.50;85.00;;;;;;5001242;28;20462;-73
2022/09/10 01:03:15;;;;;;;23.60;22.47;;;16.50;85.20;;;;;;4993147;28;20485;-73
2022/09/10 01:05:45;;;;;;;22.37;21.40;;;16.50;85.40;;;;;;4997796;28;21306;-73
2022/09/10 01:08:14;;;;;;;21.70;20.80;;;16.50;85.60;;;;;;5007844;28;20468;-73
2022/09/10 01:10:58;;;;;;;22.43;21.33;;;16.50;85.20;;;;;;5002676;28;20473;-73
2022/09/10 01:13:37;;;;;;;23.27;22.17;;;16.50;85.50;;;;;;4995588;28;20579;-73
2022/09/10 01:16:14;;;;;;;22.30;21.30;;;16.50;86.30;;;;;;5006974;28;20970;-73
2022/09/10 01:18:51;;;;;;;22.17;21.20;;;16.50;86.60;;;;;;5000446;28;20577;-74
2022/09/10 01:21:23;;;;;;;21.80;20.90;;;16.50;87.00;;;;;;5006719;28;20453;-72
2022/09/10 01:24:26;;;;;;;22.50;20.87;;;16.50;87.10;;;;;;5004459;28;20830;-72
2022/09/10 01:27:40;;;;;;;21.83;20.53;;;16.50;87.20;;;;;;5001977;28;20461;-72
2022/09/10 01:30:11;;;;;;;21.60;20.70;;;16.50;87.40;;;;;;4999340;28;20476;-73
2022/09/10 01:32:53;;;;;;;21.80;20.50;;;16.40;88.20;;;;;;5005619;28;20678;-73
2022/09/10 01:35:24;;;;;;;21.10;20.20;;;16.40;88.60;;;;;;5012567;28;20457;-74
2022/09/10 01:37:55;;;;;;;20.77;19.77;;;16.30;89.10;;;;;;5008099;28;20453;-73
2022/09/10 01:40:28;;;;;;;20.57;19.70;;;16.30;89.40;;;;;;5020226;28;20460;-73
2022/09/10 01:43:00;;;;;;;20.20;19.30;;;16.30;89.20;;;;;;4995324;28;20495;-73
2022/09/10 01:45:28;;;;;;;20.50;19.63;;;16.30;89.40;;;;;;5002277;28;20461;-73
2022/09/10 01:48:09;;;;;;;21.13;20.10;;;16.30;89.30;;;;;;5005749;28;20544;-73
2022/09/10 01:50:45;;;;;;;20.13;19.30;;;16.30;88.90;;;;;;5004078;28;20480;-74
2022/09/10 01:53:38;;;;;;;19.77;18.97;;;16.20;89.10;;;;;;4994954;28;20481;-73
2022/09/10 01:56:14;;;;;;;20.63;19.53;;;16.10;89.50;;;;;;5007095;28;20556;-72
2022/09/10 01:58:44;;;;;;;20.10;19.20;;;16.10;90.10;;;;;;4998838;28;20512;-73
2022/09/10 02:01:16;;;;;;;19.13;18.30;;;16.10;90.00;;;;;;4998423;28;20459;-73
2022/09/10 02:03:47;;;;;;;19.40;18.60;;;16.10;90.30;;;;;;5007718;28;20458;-73
2022/09/10 02:06:18;;;;;;;20.03;19.23;;;16.10;90.10;;;;;;5007313;28;20556;-73
2022/09/10 02:08:48;;;;;;;19.37;18.47;;;16.10;89.80;;;;;;5010041;28;20464;-73
2022/09/10 02:11:16;;;;;;;19.73;18.73;;;16.10;89.50;;;;;;4997306;28;20477;-73
2022/09/10 02:13:44;;;;;;;18.60;17.80;;;16.10;89.20;;;;;;4995363;28;20482;-73
2022/09/10 02:16:17;;;;;;;19.07;18.23;;;16.20;88.90;;;;;;5003351;28;20478;-73
2022/09/10 02:18:44;;;;;;;20.23;19.23;;;16.10;89.10;;;;;;5002312;28;20469;-73
2022/09/10 02:21:12;;;;;;;19.50;18.60;;;16.10;89.40;;;;;;4995068;28;21161;-73
2022/09/10 02:23:43;;;;;;;18.80;17.90;;;16.20;89.60;;;;;;5011220;28;21058;-73
2022/09/10 02:26:10;;;;;;;18.17;17.37;;;16.10;89.80;;;;;;5009436;28;20487;-73
2022/09/10 02:28:38;;;;;;;18.77;17.87;;;16.10;89.80;;;;;;5001412;28;20987;-73
2022/09/10 02:34:29;;;;;;;18.67;17.77;;;16.10;90.40;;;;;;4997934;28;20517;-73
2022/09/10 02:36:56;;;;;;;18.90;18.00;;;16.10;90.60;;;;;;5002667;28;20469;-72
2022/09/10 02:39:23;;;;;;;19.73;18.77;;;16.10;90.70;;;;;;4990416;28;20450;-73
2022/09/10 02:41:50;;;;;;;18.83;17.93;;;16.10;90.80;;;;;;5000573;28;20539;-72
2022/09/10 02:44:17;;;;;;;18.03;17.33;;;16.00;90.80;;;;;;4999759;28;20831;-72
2022/09/10 02:46:44;;;;;;;17.73;16.73;;;16.10;90.70;;;;;;4991798;28;20478;-73
2022/09/10 02:49:10;;;;;;;17.87;17.03;;;16.10;90.60;;;;;;5004796;28;20465;-73
2022/09/10 02:51:40;;;;;;;16.70;16.00;;;16.20;90.60;;;;;;5002234;28;20838;-72
2022/09/10 02:54:07;;;;;;;16.40;15.60;;;16.10;90.70;;;;;;4995852;28;20469;-73
2022/09/10 02:56:35;;;;;;;17.93;17.03;;;16.10;90.80;;;;;;5006497;28;20464;-72
2022/09/10 02:59:01;;;;;;;17.83;16.93;;;16.10;91.20;;;;;;5003049;28;20838;-73
2022/09/10 03:01:28;;;;;;;16.07;15.20;;;16.00;91.70;;;;;;5005155;28;20457;-73
2022/09/10 03:03:57;;;;;;;21.23;20.30;;;16.00;91.90;;;;;;4995782;28;20544;-73
2022/09/10 03:06:25;;;;;;;22.37;21.37;;;16.10;91.90;;;;;;4991024;28;20472;-73
2022/09/10 03:08:54;;;;;;;15.07;14.27;;;16.00;92.10;;;;;;5005174;28;20452;-71
2022/09/10 03:11:22;;;;;;;15.47;14.67;;;16.00;92.20;;;;;;5011499;28;20484;-71
2022/09/10 03:13:51;;;;;;;15.80;15.00;;;16.00;92.20;;;;;;5000581;28;20549;-72
2022/09/10 03:16:18;;;;;;;16.23;15.03;;;15.90;92.50;;;;;;5003116;28;20460;-71
2022/09/10 03:18:46;;;;;;;17.00;16.30;;;15.90;92.80;;;;;;4998727;28;21356;-72
2022/09/10 03:21:17;;;;;;;16.10;15.20;;;16.00;92.80;;;;;;5009168;28;20456;-72
2022/09/10 03:23:44;;;;;;;23.10;22.13;;;15.90;92.90;;;;;;4998369;28;20472;-71
2022/09/10 03:26:15;;;;;;;16.30;15.57;;;15.90;92.30;;;;;;5008666;28;20461;-72
2022/09/10 03:28:44;;;;;;;16.10;15.30;;;15.90;92.10;;;;;;4993359;28;20846;-71
2022/09/10 03:31:12;;;;;;;16.20;15.30;;;16.00;91.50;;;;;;4989733;28;20474;-71
2022/09/10 03:33:39;;;;;;;16.67;15.87;;;15.90;91.60;;;;;;5001556;28;20578;-71
2022/09/10 03:36:07;;;;;;;16.30;15.40;;;16.00;91.30;;;;;;5008668;28;21447;-71
2022/09/10 03:38:33;;;;;;;19.33;18.30;;;16.00;91.00;;;;;;4999685;28;20465;-71
2022/09/10 03:41:01;;;;;;;16.13;15.33;;;16.00;91.10;;;;;;5001342;28;20453;-72
2022/09/10 03:43:30;;;;;;;15.80;15.10;;;16.10;91.00;;;;;;5005091;28;23004;-71
2022/09/10 03:45:57;;;;;;;16.27;15.27;;;16.00;91.20;;;;;;5000611;28;20461;-71
2022/09/10 03:48:24;;;;;;;16.33;15.63;;;16.00;91.00;;;;;;4995344;28;20461;-72
2022/09/10 03:50:51;;;;;;;23.37;22.37;;;16.00;91.00;;;;;;5003780;28;20453;-72
2022/09/10 03:53:19;;;;;;;16.80;16.00;;;16.00;91.30;;;;;;5007871;28;20481;-71
2022/09/10 03:55:46;;;;;;;17.27;16.40;;;16.00;91.20;;;;;;5004243;28;20962;-72
2022/09/10 03:58:14;;;;;;;17.10;16.30;;;16.00;91.10;;;;;;4990253;28;20464;-71
2022/09/10 04:00:42;;;;;;;24.50;23.17;;;16.00;91.00;;;;;;5004287;28;20464;-71
2022/09/10 04:03:10;;;;;;;18.00;16.93;;;16.00;91.20;;;;;;5005319;28;20476;-72
2022/09/10 04:05:42;;;;;;;17.00;16.10;;;16.00;91.10;;;;;;5006975;28;20464;-71
2022/09/10 04:08:09;;;;;;;15.83;15.13;;;16.00;91.10;;;;;;4996959;28;20554;-71
2022/09/10 04:10:36;;;;;;;17.60;16.80;;;16.00;91.00;;;;;;5018223;28;20457;-71
2022/09/10 04:13:03;;;;;;;15.40;14.70;;;15.90;91.40;;;;;;5008166;28;20495;-71
2022/09/10 04:15:30;;;;;;;16.50;15.60;;;15.90;91.60;;;;;;4997194;28;21025;-72
2022/09/10 04:17:58;;;;;;;17.10;16.40;;;15.80;92.10;;;;;;5018048;28;20465;-72
2022/09/10 04:20:25;;;;;;;17.60;16.80;;;15.80;92.10;;;;;;5004059;28;20456;-71
2022/09/10 04:22:52;;;;;;;16.67;15.70;;;15.90;91.70;;;;;;5001673;28;20477;-73
2022/09/10 04:25:20;;;;;;;15.80;15.10;;;15.80;91.80;;;;;;5008342;28;20474;-73
2022/09/10 04:27:48;;;;;;;15.97;14.97;;;15.90;91.70;;;;;;5014475;28;21155;-73
2022/09/10 04:30:16;;;;;;;15.00;14.40;;;15.80;91.80;;;;;;4998174;28;21166;-73
2022/09/10 04:32:46;;;;;;;16.73;15.70;;;15.90;91.50;;;;;;5012704;28;20887;-73
2022/09/10 04:35:15;;;;;;;25.27;24.17;;;15.80;91.20;;;;;;4995694;28;20492;-73
2022/09/10 04:37:42;;;;;;;15.73;14.93;;;15.80;91.10;;;;;;4994048;28;20466;-73
2022/09/10 04:40:10;;;;;;;15.57;14.93;;;15.80;91.20;;;;;;5010853;28;20782;-73
2022/09/10 04:42:37;;;;;;;17.13;16.20;;;15.90;90.50;;;;;;5001321;28;20472;-73
2022/09/10 04:45:05;;;;;;;20.40;19.50;;;15.90;90.70;;;;;;4999444;28;20849;-73
2022/09/10 04:47:33;;;;;;;19.97;19.00;;;15.80;91.10;;;;;;4999451;28;20461;-73
2022/09/10 04:49:59;;;;;;;16.67;15.97;;;15.90;91.00;;;;;;5013837;28;20461;-72
2022/09/10 04:52:28;;;;;;;24.67;23.37;;;15.80;90.90;;;;;;5005219;28;20490;-74
2022/09/10 04:54:54;;;;;;;17.00;16.20;;;15.80;90.80;;;;;;5003931;28;20460;-73
2022/09/10 04:57:22;;;;;;;17.10;16.40;;;15.90;90.70;;;;;;5018437;28;20472;-73
2022/09/10 04:59:49;;;;;;;22.90;21.77;;;15.80;90.90;;;;;;5003115;28;20454;-73
2022/09/10 05:02:16;;;;;;;21.33;20.30;;;15.90;90.70;;;;;;5001062;28;21021;-74
2022/09/10 05:04:43;;;;;;;16.70;15.90;;;15.90;90.70;;;;;;5006701;28;21013;-73
2022/09/10 05:07:09;;;;;;;15.40;14.53;;;15.90;90.70;;;;;;5007045;28;20500;-72
2022/09/10 05:09:38;;;;;;;14.73;14.07;;;15.90;90.80;;;;;;4997508;28;20465;-72
2022/09/10 05:12:05;;;;;;;17.60;16.70;;;15.90;90.80;;;;;;5014028;28;20519;-72
2022/09/10 05:14:32;;;;;;;17.73;16.93;;;15.90;90.80;;;;;;5000319;28;20465;-73
2022/09/10 05:16:59;;;;;;;16.90;16.07;;;15.90;90.60;;;;;;5006533;28;20469;-72
2022/09/10 05:19:25;;;;;;;14.90;14.20;;;16.00;90.10;;;;;;5009456;28;20459;-72
2022/09/10 05:21:52;;;;;;;16.30;15.60;;;16.00;90.20;;;;;;5003076;28;20485;-73
2022/09/10 05:24:20;;;;;;;19.07;18.13;;;16.00;90.00;;;;;;4998269;28;20992;-73
2022/09/10 05:26:48;;;;;;;17.60;16.70;;;16.10;89.80;;;;;;5004887;28;20488;-73
2022/09/10 05:29:15;;;;;;;17.80;17.00;;;16.00;90.30;;;;;;5000363;28;20468;-73
2022/09/10 05:31:43;;;;;;;18.83;17.90;;;16.00;90.20;;;;;;5015477;28;20584;-72
2022/09/10 05:34:10;;;;;;;15.40;14.80;;;16.10;90.00;;;;;;5008709;28;20460;-73
2022/09/10 05:36:36;;;;;;;16.43;15.73;;;16.10;90.00;;;;;;5010403;28;20465;-73
2022/09/10 05:39:04;;;;;;;26.17;25.03;;;16.20;89.90;;;;;;4998184;28;20466;-73
2022/09/10 05:41:31;;;;;;;16.80;16.10;;;16.20;90.00;;;;;;4996564;28;21200;-73
2022/09/10 05:43:59;;;;;;;20.10;19.10;;;16.20;90.10;;;;;;4997157;28;20465;-73
2022/09/10 05:46:27;;;;;;;15.27;14.57;;;16.20;90.30;;;;;;5008852;28;20471;-74
2022/09/10 05:48:54;;;;;;;16.30;15.50;;;16.20;90.50;;;;;;4999790;28;20464;-73
2022/09/10 05:51:21;;;;;;;14.70;14.00;;;16.10;90.80;;;;;;5010521;28;20482;-73
2022/09/10 05:53:48;;;;;;;15.83;14.97;;;16.10;90.90;;;;;;4998649;28;20461;-73
2022/09/10 05:56:15;;;;;;;25.63;24.43;;;16.20;90.70;;;;;;5002735;28;20464;-73
2022/09/10 05:58:43;;;;;;;17.50;16.70;;;16.20;90.30;;;;;;4995999;28;20473;-73
2022/09/10 06:01:12;;;;;;;19.63;18.43;;;16.30;90.20;;;;;;5005702;28;20569;-73
2022/09/10 06:03:39;;;;;;;21.83;20.83;;;16.40;89.60;;;;;;5012890;28;20479;-73
2022/09/10 06:06:06;;;;;;;16.53;15.63;;;16.40;89.30;;;;;;5000780;28;20568;-73
2022/09/10 06:08:34;;;;;;;25.50;24.30;;;16.40;89.00;;;;;;5004073;28;20462;-73
2022/09/10 06:11:03;;;;;;;17.20;16.40;;;16.50;89.10;;;;;;4997519;28;20953;-73
2022/09/10 06:13:31;;;;;;;16.30;15.50;;;16.50;89.10;;;;;;4990781;28;20832;-74
2022/09/10 06:15:59;;;;;;;30.90;29.30;;;16.50;88.80;;;;;;4995866;28;20456;-74
2022/09/10 06:18:27;;;;;;;28.33;27.13;;;16.70;88.80;;;;;;5001302;28;21075;-72
2022/09/10 06:21:05;;;;;;;16.63;15.93;;;16.70;88.10;;;;;;5011967;28;20597;-73
2022/09/10 06:23:32;;;;;;;26.80;25.07;;;16.60;88.20;;;;;;5008916;28;20480;-73
2022/09/10 06:26:02;;;;;;;18.20;17.30;;;16.60;88.00;;;;;;5002520;28;21025;-71
2022/09/10 06:28:30;;;;;;;21.37;20.27;;;16.80;87.90;;;;;;5004012;28;20460;-71
2022/09/10 06:30:57;;;;;;;28.70;27.43;;;16.90;87.20;;;;;;4993197;28;20463;-71
2022/09/10 06:33:24;;;;;;;29.73;28.13;;;16.90;87.20;;;;;;5004468;28;20494;-71
2022/09/10 06:35:54;;;;;;;18.17;17.30;;;17.00;86.80;;;;;;5005449;28;20831;-71
2022/09/10 06:38:21;;;;;;;18.97;17.93;;;17.10;86.60;;;;;;5013192;28;20461;-73
2022/09/10 06:40:53;;;;;;;20.77;19.87;;;17.20;85.90;;;;;;5008911;28;20579;-74
2022/09/10 06:43:22;;;;;;;19.53;18.40;;;17.30;85.60;;;;;;4997918;28;20521;-73
2022/09/10 06:45:51;;;;;;;38.93;37.33;;;17.30;85.40;;;;;;4994628;28;20503;-74
2022/09/10 06:48:18;;;;;;;24.27;23.03;;;17.50;84.50;;;;;;5002517;28;21043;-73
2022/09/10 06:50:55;;;;;;;22.07;20.93;;;17.60;84.00;;;;;;5000647;28;20464;-73
2022/09/10 06:53:23;;;;;;;18.90;18.00;;;17.80;83.20;;;;;;5009906;28;20500;-75
2022/09/10 06:55:50;;;;;;;30.40;28.70;;;17.90;82.80;;;;;;5009738;28;20484;-73
2022/09/10 06:58:18;;;;;;;20.73;19.57;;;17.90;82.20;;;;;;5005427;28;20465;-74
2022/09/10 07:00:46;;;;;;;34.50;32.70;;;17.90;81.80;;;;;;5008806;28;20472;-74
2022/09/10 07:03:15;;;;;;;26.57;25.33;;;18.10;81.70;;;;;;5005266;28;20572;-73
2022/09/10 07:05:42;;;;;;;24.30;23.20;;;18.20;81.30;;;;;;5006993;28;20465;-73
2022/09/10 07:08:14;;;;;;;26.93;25.83;;;18.30;81.00;;;;;;5006422;28;20506;-75
2022/09/10 07:10:43;;;;;;;42.10;40.00;;;18.40;80.40;;;;;;5011971;28;20752;-75
2022/09/10 07:13:11;;;;;;;29.67;28.30;;;18.50;80.20;;;;;;5005860;28;20568;-74
2022/09/10 07:15:45;;;;;;;24.40;23.30;;;18.60;79.90;;;;;;5011634;28;20470;-75
2022/09/10 07:18:13;;;;;;;25.30;24.17;;;18.80;79.50;;;;;;5000164;28;20469;-73
2022/09/10 07:20:40;;;;;;;31.17;28.80;;;18.80;79.30;;;;;;5007735;28;20946;-74
2022/09/10 07:23:07;;;;;;;30.70;29.00;;;19.00;78.90;;;;;;4993865;28;20484;-75
2022/09/10 07:25:35;;;;;;;24.07;22.87;;;19.10;78.80;;;;;;4996119;28;20486;-74
2022/09/10 07:28:02;;;;;;;24.47;23.17;;;19.10;79.10;;;;;;5004719;28;20565;-75
2022/09/10 07:30:30;;;;;;;28.70;27.30;;;19.10;78.40;;;;;;5000110;28;20465;-74
2022/09/10 07:32:57;;;;;;;31.37;29.97;;;19.10;78.30;;;;;;5009440;28;20839;-74
2022/09/10 07:35:24;;;;;;;25.07;23.97;;;19.00;78.30;;;;;;5006576;28;20472;-73
2022/09/10 07:37:51;;;;;;;22.60;21.60;;;19.10;78.50;;;;;;5006829;28;20473;-73
2022/09/10 07:40:18;;;;;;;37.87;36.07;;;19.20;78.40;;;;;;5009950;28;20473;-72
2022/09/10 07:42:47;;;;;;;44.67;42.07;;;19.30;78.10;;;;;;5016370;28;20492;-73
2022/09/10 07:45:15;;;;;;;25.63;24.20;;;19.30;78.30;;;;;;5015168;28;20961;-74
2022/09/10 07:47:43;;;;;;;33.57;31.40;;;19.40;77.70;;;;;;5007573;28;20474;-73
2022/09/10 07:50:10;;;;;;;30.97;28.40;;;19.60;76.80;;;;;;5003519;28;20539;-74
2022/09/10 07:52:37;;;;;;;27.57;26.37;;;19.70;76.70;;;;;;5008405;28;20495;-74
2022/09/10 07:55:04;;;;;;;25.80;24.50;;;19.70;76.20;;;;;;5013997;28;20555;-75
2022/09/10 07:57:33;;;;;;;31.00;29.40;;;19.80;76.30;;;;;;5009362;28;20469;-72
2022/09/10 08:00:02;;;;;;;29.10;27.20;;;19.80;76.30;;;;;;4996699;28;20805;-72
2022/09/10 08:02:29;;;;;;;53.73;39.80;;;19.90;75.80;;;;;;4999564;28;22354;-72
2022/09/10 08:04:55;;;;;;;25.77;23.73;;;19.80;75.80;;;;;;4995143;28;20466;-72
2022/09/10 08:07:22;;;;;;;37.47;35.63;;;19.80;76.00;;;;;;4998904;28;20570;-72
2022/09/10 08:09:54;;;;;;;28.17;26.70;;;19.90;75.40;;;;;;5008129;28;20554;-73
2022/09/10 08:12:21;;;;;;;29.93;28.20;;;19.90;75.00;;;;;;4996260;28;20495;-75
2022/09/10 08:14:48;;;;;;;33.43;31.10;;;20.00;75.10;;;;;;5009611;28;20460;-71
2022/09/10 08:17:17;;;;;;;28.20;26.53;;;20.10;75.10;;;;;;5004961;28;20970;-72
2022/09/10 08:19:45;;;;;;;51.97;49.77;;;20.00;74.50;;;;;;4998099;28;20470;-72
2022/09/10 08:22:13;;;;;;;30.53;29.17;;;20.10;74.30;;;;;;5005810;28;20533;-72
2022/09/10 08:24:39;;;;;;;27.53;26.13;;;20.20;74.50;;;;;;5013307;28;20457;-72
2022/09/10 08:27:06;;;;;;;33.77;32.17;;;20.30;74.50;;;;;;5012317;28;20468;-73
2022/09/10 08:29:34;;;;;;;32.83;31.40;;;20.50;73.80;;;;;;4999730;28;20458;-72
2022/09/10 08:32:00;;;;;;;31.43;30.03;;;20.70;73.30;;;;;;5003578;28;20883;-72
2022/09/10 08:34:29;;;;;;;43.47;41.27;;;20.90;72.50;;;;;;5011459;28;20476;-73
2022/09/10 08:36:58;;;;;;;28.70;27.40;;;21.00;72.00;;;;;;5000357;28;20497;-74
2022/09/10 08:39:25;;;;;;;41.83;39.83;;;21.10;71.20;;;;;;5007471;28;20548;-76
2022/09/10 08:41:56;;;;;;;28.80;27.50;;;21.20;71.00;;;;;;5009164;28;20578;-75
2022/09/10 08:44:31;;;;;;;32.50;31.00;;;21.40;70.80;;;;;;5002394;28;20449;-72
2022/09/10 08:47:03;;;;;;;27.30;26.10;;;21.40;70.40;;;;;;5005628;28;20471;-73
2022/09/10 08:49:38;;;;;;;35.60;33.80;;;21.50;69.40;;;;;;4994984;28;20887;-72
2022/09/10 08:52:12;;;;;;;26.87;25.57;;;21.60;69.70;;;;;;4991767;28;20488;-73
2022/09/10 08:54:46;;;;;;;32.13;30.27;;;21.80;68.90;;;;;;4997890;28;20503;-71
2022/09/10 08:57:25;;;;;;;32.67;31.00;;;21.80;68.50;;;;;;5004007;28;20477;-71
2022/09/10 08:59:56;;;;;;;28.90;27.63;;;21.80;67.90;;;;;;5000051;28;20467;-71
2022/09/10 09:02:30;;;;;;;39.47;37.47;;;21.70;67.10;;;;;;4996710;28;20572;-73
2022/09/10 09:05:03;;;;;;;35.50;33.80;;;21.60;67.30;;;;;;5003477;28;20451;-72
2022/09/10 09:07:38;;;;;;;37.87;35.70;;;21.60;66.60;;;;;;5003171;28;20457;-72
2022/09/10 09:10:25;;;;;;;34.80;33.00;;;21.70;67.00;;;;;;5005132;28;20471;-73
2022/09/10 09:13:16;;;;;;;38.87;36.53;;;21.80;66.70;;;;;;4999017;28;20851;-75
2022/09/10 09:15:50;;;;;;;37.87;35.57;;;21.90;65.90;;;;;;4996322;28;20468;-73
2022/09/10 09:18:26;;;;;;;31.83;30.33;;;21.90;65.70;;;;;;5006326;28;20469;-72
2022/09/10 09:20:57;;;;;;;36.07;33.97;;;21.90;65.80;;;;;;5006454;28;20658;-77
2022/09/10 09:23:31;;;;;;;35.87;34.10;;;22.00;65.70;;;;;;5010761;28;20488;-72
2022/09/10 09:26:04;;;;;;;36.07;33.73;;;21.80;65.60;;;;;;5002523;28;20457;-71
2022/09/10 09:28:38;;;;;;;31.37;29.67;;;21.40;65.20;;;;;;5004551;28;21012;-74
2022/09/10 09:31:11;;;;;;;41.17;38.83;;;21.40;65.70;;;;;;5007110;28;20455;-71
2022/09/10 09:33:38;;;;;;;42.40;40.17;;;21.80;65.30;;;;;;5003273;28;20480;-73
2022/09/10 09:36:11;;;;;;;34.73;32.93;;;21.80;64.50;;;;;;4997713;28;20468;-76
2022/09/10 09:38:41;;;;;;;29.67;27.67;;;21.90;64.60;;;;;;5000981;28;20457;-71
2022/09/10 09:41:14;;;;;;;32.23;30.73;;;22.10;63.80;;;;;;5012755;28;20881;-73
2022/09/10 09:43:53;;;;;;;34.60;33.00;;;21.90;62.90;;;;;;5000026;28;21005;-71
2022/09/10 09:46:23;;;;;;;39.00;36.90;;;21.70;64.10;;;;;;5011272;28;20898;-73
2022/09/10 09:48:53;;;;;;;32.40;30.60;;;21.60;64.90;;;;;;5011107;28;20480;-71
2022/09/10 09:51:24;;;;;;;34.10;32.40;;;21.60;65.20;;;;;;5012165;28;20954;-71
2022/09/10 09:53:54;;;;;;;37.50;35.70;;;21.70;64.60;;;;;;5009094;28;20830;-72
2022/09/10 09:56:25;;;;;;;36.30;34.53;;;21.70;65.10;;;;;;5016478;28;20457;-69
2022/09/10 09:58:52;;;;;;;29.53;28.03;;;21.50;65.00;;;;;;5016571;28;20522;-71
2022/09/10 10:01:22;;;;;;;41.53;39.43;;;21.60;64.30;;;;;;5017090;28;20464;-72
2022/09/10 10:03:57;;;;;;;36.10;34.03;;;21.60;63.70;;;;;;5017358;28;20815;-71
2022/09/10 10:06:27;;;;;;;31.30;29.80;;;21.60;64.60;;;;;;5008811;28;20460;-69
2022/09/10 10:08:58;;;;;;;34.13;32.50;;;21.60;64.10;;;;;;5019062;28;20462;-69
2022/09/10 10:11:40;;;;;;;32.13;30.43;;;21.30;64.20;;;;;;5004166;28;21024;-70
2022/09/10 10:14:22;;;;;;;28.07;26.53;;;21.20;65.40;;;;;;5004412;28;20480;-70
2022/09/10 10:16:51;;;;;;;32.93;31.17;;;21.10;65.70;;;;;;5002176;28;20987;-70
2022/09/10 10:19:35;;;;;;;38.53;36.07;;;21.10;65.80;;;;;;4998330;28;20855;-70
2022/09/10 10:22:21;;;;;;;29.30;27.23;;;21.20;65.90;;;;;;4994732;28;20495;-69
2022/09/10 10:24:50;;;;;;;27.90;26.57;;;21.40;65.60;;;;;;4999140;28;20454;-70
2022/09/10 10:27:19;;;;;;;32.43;30.60;;;21.60;64.90;;;;;;5004011;28;20465;-69
2022/09/10 10:29:55;;;;;;;30.57;29.00;;;21.70;64.60;;;;;;4995783;28;20475;-72
2022/09/10 10:32:31;;;;;;;27.63;26.20;;;21.60;64.00;;;;;;5002499;28;20914;-71
2022/09/10 10:35:11;;;;;;;46.27;43.37;;;21.70;63.80;;;;;;4998849;28;20487;-71
2022/09/10 10:37:48;;;;;;;36.17;34.27;;;21.80;64.20;;;;;;4997859;28;20460;-70
2022/09/10 10:40:25;;;;;;;37.80;35.53;;;21.90;64.60;;;;;;5008326;28;20500;-70
2022/09/10 10:43:02;;;;;;;38.93;36.53;;;22.00;64.20;;;;;;4995721;28;20990;-72
2022/09/10 10:45:42;;;;;;;27.93;26.50;;;22.20;63.20;;;;;;5002108;28;20556;-71
2022/09/10 10:48:12;;;;;;;38.47;36.40;;;22.30;63.20;;;;;;5010954;28;20466;-71
2022/09/10 10:50:53;;;;;;;35.37;33.40;;;22.40;62.30;;;;;;5003617;28;20520;-71
2022/09/10 10:53:53;;;;;;;32.50;30.27;;;22.50;62.30;;;;;;5001979;28;20844;-71
2022/09/10 10:56:25;;;;;;;38.60;36.67;;;22.50;62.10;;;;;;5007975;28;20487;-72
2022/09/10 10:59:09;;;;;;;38.83;36.53;;;22.60;61.60;;;;;;5002939;28;20460;-71
2022/09/10 11:01:42;;;;;;;35.00;33.30;;;22.50;62.00;;;;;;5004915;28;21182;-72
2022/09/10 11:04:23;;;;;;;29.77;28.37;;;22.80;61.20;;;;;;5008099;28;20942;-72
2022/09/10 11:06:57;;;;;;;31.53;30.00;;;22.80;60.70;;;;;;5005546;28;20543;-72
2022/09/10 11:09:30;;;;;;;43.60;41.30;;;22.70;60.20;;;;;;5005091;28;20526;-71
2022/09/10 11:12:01;;;;;;;35.77;34.07;;;22.60;59.70;;;;;;4999477;28;20473;-71
2022/09/10 11:14:35;;;;;;;36.57;34.77;;;22.60;59.50;;;;;;5000785;28;20492;-71
2022/09/10 11:17:09;;;;;;;46.00;43.50;;;22.50;60.00;;;;;;4995371;28;20472;-72
2022/09/10 11:19:42;;;;;;;32.50;30.97;;;22.50;59.80;;;;;;5011579;28;20457;-72
2022/09/10 11:22:15;;;;;;;35.80;33.90;;;22.50;59.60;;;;;;4999206;28;20481;-72
2022/09/10 11:24:46;;;;;;;32.97;30.80;;;22.70;58.60;;;;;;5001059;28;21379;-72
2022/09/10 11:27:19;;;;;;;33.07;31.17;;;22.80;57.90;;;;;;4991474;28;20552;-73
2022/09/10 11:29:53;;;;;;;31.50;30.00;;;23.00;57.50;;;;;;5003444;28;20516;-75
2022/09/10 11:32:29;;;;;;;42.57;40.37;;;23.00;57.00;;;;;;5008135;28;20484;-72
2022/09/10 11:35:05;;;;;;;30.47;28.87;;;22.60;57.20;;;;;;5009486;28;20475;-73
2022/09/10 11:37:45;;;;;;;32.30;30.80;;;22.40;57.70;;;;;;5003456;28;20491;-72
2022/09/10 11:40:22;;;;;;;30.43;28.63;;;22.40;57.90;;;;;;5006593;23;20498;-78
2022/09/10 11:42:55;;;;;;;29.00;27.57;;;22.30;57.70;;;;;;4987064;28;20482;-73
2022/09/10 11:45:29;;;;;;;36.73;34.80;;;22.20;57.90;;;;;;4988325;28;20457;-70
2022/09/10 11:48:01;;;;;;;38.60;36.80;;;22.00;58.40;;;;;;4986376;28;20476;-72
2022/09/10 11:50:33;;;;;;;42.07;39.90;;;21.60;59.30;;;;;;4988123;28;20462;-71
2022/09/10 11:53:01;;;;;;;28.27;26.90;;;21.30;60.30;;;;;;4982680;28;20482;-71
2022/09/10 11:55:39;;;;;;;29.10;27.60;;;21.20;61.30;;;;;;4990723;28;20478;-69
2022/09/10 11:58:16;;;;;;;42.53;40.43;;;21.00;61.50;;;;;;4985020;28;20472;-72
2022/09/10 12:00:55;;;;;;;35.97;34.17;;;20.90;61.80;;;;;;4985757;28;20467;-75
2022/09/10 12:03:41;;;;;;;48.07;45.73;;;20.90;62.20;;;;;;4978942;28;20486;-74
2022/09/10 12:06:15;;;;;;;30.70;29.10;;;21.10;62.20;;;;;;4983225;28;20465;-70
2022/09/10 12:09:02;;;;;;;29.20;27.80;;;21.50;61.70;;;;;;4985830;28;20493;-71
2022/09/10 12:11:38;;;;;;;28.63;26.63;;;21.90;60.00;;;;;;4983905;28;20466;-71
2022/09/10 12:14:07;;;;;;;30.00;27.97;;;22.10;59.80;;;;;;4991519;28;20511;-71
2022/09/10 12:16:37;;;;;;;45.33;43.00;;;22.30;59.30;;;;;;4985139;28;20454;-72
2022/09/10 12:19:08;;;;;;;47.87;45.67;;;22.20;59.30;;;;;;4982224;28;20502;-71
2022/09/10 12:21:40;;;;;;;28.77;27.03;;;22.30;58.30;;;;;;4986458;28;20458;-71
2022/09/10 12:24:24;;;;;;;43.43;40.70;;;22.30;57.90;;;;;;4982970;28;20475;-71
2022/09/10 12:26:54;;;;;;;28.80;27.40;;;22.30;57.60;;;;;;4989578;28;20959;-71
2022/09/10 12:29:28;;;;;;;45.33;43.13;;;22.30;57.80;;;;;;4981326;28;20461;-70
2022/09/10 12:32:34;;;;;;;28.40;26.90;;;22.20;57.90;;;;;;4986066;28;20847;-71
2022/09/10 12:35:44;;;;;;;31.87;30.30;;;22.10;58.50;;;;;;4986716;28;20475;-72
2022/09/10 12:38:56;;;;;;;30.80;29.03;;;22.20;57.80;;;;;;4989876;28;20467;-72
2022/09/10 12:42:00;;;;;;;47.47;44.87;;;22.20;58.40;;;;;;4962844;28;20450;-72
2022/09/10 12:44:45;;;;;;;32.03;30.43;;;22.20;58.60;;;;;;4991289;28;20464;-73
2022/09/10 12:47:42;;;;;;;32.63;31.13;;;22.20;59.10;;;;;;4982280;28;20471;-74
2022/09/10 12:50:31;;;;;;;31.30;29.50;;;22.20;59.50;;;;;;4986185;28;20445;-72
2022/09/10 12:53:25;;;;;;;29.83;28.20;;;22.20;59.40;;;;;;4995213;28;20488;-74